Time;durP1;ratioP1;P1;durP2;ratioP2;P2;SDS_P1;SDS_P2;PMS_P1;PMS_P2;Temp;Humidity;BMP_temperature;BMP_pressure;BME280_temperature;BME280_humidity;BME280_pressure;Samples;Min_cycle;Max_cycle;Signal;HPM_P1;HPM_P2
2022/05/30 00:01:21;;;;;;;6.85;1.63;;;9.20;99.90;;;;;;5046705;28;20021;-34
2022/05/30 00:03:47;;;;;;;6.03;1.38;;;9.30;99.90;;;;;;5041422;28;20121;-37
2022/05/30 00:06:16;;;;;;;6.43;1.17;;;9.20;99.90;;;;;;5042252;28;20505;-36
2022/05/30 00:08:42;;;;;;;5.75;1.77;;;9.20;99.90;;;;;;5042109;28;20060;-37
2022/05/30 00:11:10;;;;;;;7.78;1.15;;;9.20;99.90;;;;;;5043313;28;20087;-37
2022/05/30 00:13:37;;;;;;;5.15;1.70;;;9.20;99.90;;;;;;5033386;28;20556;-33
2022/05/30 00:16:15;;;;;;;1.67;1.00;;;9.20;99.90;;;;;;5051018;28;20025;-37
2022/05/30 00:18:41;;;;;;;;;;;9.30;99.90;;;;;;5039509;28;20488;-37
2022/05/30 00:21:07;;;;;;;3.85;1.30;;;9.30;99.90;;;;;;5040845;28;19934;-36
2022/05/30 00:23:33;;;;;;;3.33;1.10;;;9.30;99.90;;;;;;5036955;28;20056;-37
2022/05/30 00:25:59;;;;;;;7.30;1.33;;;9.30;99.90;;;;;;5032375;28;20026;-56
2022/05/30 00:28:25;;;;;;;4.63;1.00;;;9.30;99.90;;;;;;5037669;28;20029;-36
2022/05/30 00:30:51;;;;;;;4.03;1.05;;;9.30;99.90;;;;;;5037391;28;20036;-37
2022/05/30 00:33:18;;;;;;;1.48;0.55;;;9.20;99.90;;;;;;5041773;28;20599;-36
2022/05/30 00:35:44;;;;;;;1.42;1.00;;;9.20;99.90;;;;;;5036133;28;20465;-41
2022/05/30 00:38:11;;;;;;;7.28;1.63;;;9.10;99.90;;;;;;5040414;28;20489;-36
2022/05/30 00:40:38;;;;;;;5.55;1.25;;;9.10;99.90;;;;;;5044238;28;20465;-37
2022/05/30 00:43:17;;;;;;;4.20;0.80;;;9.00;99.90;;;;;;5045439;28;20524;-34
2022/05/30 00:45:42;;;;;;;7.88;1.80;;;8.90;99.90;;;;;;5038144;28;20038;-30
2022/05/30 00:48:08;;;;;;;6.75;1.30;;;8.90;99.90;;;;;;5032463;28;20044;-26
2022/05/30 00:50:35;;;;;;;6.28;1.27;;;8.90;99.90;;;;;;5039571;28;20477;-36
2022/05/30 00:53:01;;;;;;;4.93;0.80;;;8.80;99.90;;;;;;5046162;28;20485;-29
2022/05/30 00:55:27;;;;;;;3.10;0.68;;;8.80;99.90;;;;;;5042077;28;20025;-31
2022/05/30 00:57:53;;;;;;;11.57;1.15;;;8.70;99.90;;;;;;5040874;28;20501;-28
2022/05/30 01:00:25;;;;;;;2.47;1.23;;;8.70;99.90;;;;;;5049551;28;20079;-29
2022/05/30 01:06:30;;;;;;;1.75;1.05;;;8.80;99.90;;;;;;5044014;28;20032;-29
2022/05/30 01:08:27;;;;;;;2.25;1.27;;;8.70;99.90;;;;;;5043472;28;20290;-30
2022/05/30 01:10:53;;;;;;;3.15;1.20;;;8.70;99.90;;;;;;5051050;28;20144;-31
2022/05/30 01:13:19;;;;;;;5.80;1.20;;;8.70;99.90;;;;;;5032417;28;20152;-31
2022/05/30 01:15:45;;;;;;;1.33;0.85;;;8.80;99.90;;;;;;5033249;28;20097;-32
2022/05/30 01:18:23;;;;;;;4.35;0.88;;;8.80;99.90;;;;;;5046486;28;20025;-27
2022/05/30 01:21:10;;;;;;;3.03;1.08;;;8.80;99.90;;;;;;5040949;28;20033;-26
2022/05/30 01:23:44;;;;;;;10.07;2.58;;;8.70;99.90;;;;;;5046781;28;20499;-28
2022/05/30 01:26:33;;;;;;;7.55;1.35;;;8.70;99.90;;;;;;5045246;28;20080;-31
2022/05/30 01:29:04;;;;;;;1.95;1.20;;;8.70;99.90;;;;;;5038254;28;20477;-29
2022/05/30 01:31:30;;;;;;;9.13;1.95;;;8.70;99.90;;;;;;5038172;28;20504;-27
2022/05/30 01:33:56;;;;;;;4.30;0.90;;;8.80;99.90;;;;;;5052009;28;20538;-26
2022/05/30 01:36:24;;;;;;;2.58;0.90;;;8.80;99.90;;;;;;5042701;28;20021;-29
2022/05/30 01:38:49;;;;;;;4.10;1.00;;;8.80;99.90;;;;;;5039865;28;20029;-27
2022/05/30 01:41:15;;;;;;;4.47;0.90;;;8.80;99.90;;;;;;5035475;28;20067;-35
2022/05/30 01:43:41;;;;;;;5.95;1.27;;;8.80;99.90;;;;;;5033896;28;20389;-37
2022/05/30 01:46:10;;;;;;;7.28;1.35;;;8.80;99.90;;;;;;5043545;28;20036;-49
2022/05/30 01:48:36;;;;;;;4.80;1.15;;;8.80;99.90;;;;;;5034532;28;20022;-35
2022/05/30 01:51:01;;;;;;;2.88;0.93;;;8.80;99.90;;;;;;5034487;28;20481;-32
2022/05/30 01:53:28;;;;;;;6.35;1.95;;;8.80;99.90;;;;;;5043244;28;20072;-32
2022/05/30 01:55:53;;;;;;;3.95;1.33;;;8.80;99.90;;;;;;5054315;28;20536;-36
2022/05/30 01:58:19;;;;;;;3.88;0.90;;;8.80;99.90;;;;;;5048130;28;20108;-36
2022/05/30 02:00:45;;;;;;;3.40;1.13;;;8.90;99.90;;;;;;5048997;28;20392;-36
2022/05/30 02:03:10;;;;;;;4.70;1.67;;;8.90;99.90;;;;;;5047812;28;20036;-37
2022/05/30 02:05:36;;;;;;;9.00;2.00;;;8.90;99.90;;;;;;5054527;28;20024;-35
2022/05/30 02:08:02;;;;;;;3.78;1.30;;;8.90;99.90;;;;;;5049484;28;20030;-37
2022/05/30 02:10:31;;;;;;;3.38;1.17;;;8.90;99.90;;;;;;5040914;28;20018;-36
2022/05/30 02:12:57;;;;;;;1.15;0.95;;;8.90;99.90;;;;;;5043784;28;20039;-37
2022/05/30 02:15:23;;;;;;;4.45;1.10;;;8.90;99.90;;;;;;5034640;28;20025;-37
2022/05/30 02:17:49;;;;;;;4.20;1.40;;;8.80;99.90;;;;;;5034473;28;20086;-36
2022/05/30 02:20:14;;;;;;;8.38;1.60;;;8.90;99.90;;;;;;5039309;28;20574;-28
2022/05/30 02:22:40;;;;;;;6.07;1.45;;;8.90;99.90;;;;;;5053050;28;20397;-31
2022/05/30 02:25:06;;;;;;;5.07;1.63;;;8.80;99.90;;;;;;5045056;28;20033;-30
2022/05/30 02:27:32;;;;;;;6.82;1.55;;;8.80;99.90;;;;;;5048306;28;20083;-29
2022/05/30 02:29:57;;;;;;;3.50;1.42;;;8.70;99.90;;;;;;5050712;28;20025;-44
2022/05/30 02:32:23;;;;;;;5.85;1.45;;;8.70;99.90;;;;;;5044539;28;20047;-37
2022/05/30 02:37:33;;;;;;;2.75;1.38;;;8.70;99.90;;;;;;5050165;28;20080;-35
2022/05/30 02:39:59;;;;;;;5.32;1.52;;;8.70;99.90;;;;;;5049013;28;20428;-36
2022/05/30 02:42:25;;;;;;;6.05;1.65;;;8.70;99.90;;;;;;5034947;28;20087;-36
2022/05/30 02:44:50;;;;;;;6.53;1.48;;;8.70;99.90;;;;;;5048954;28;20104;-36
2022/05/30 02:47:19;;;;;;;2.03;1.27;;;8.70;99.90;;;;;;5052064;28;20108;-36
2022/05/30 02:49:44;;;;;;;5.50;1.58;;;8.80;99.90;;;;;;5034437;28;20071;-36
2022/05/30 02:52:10;;;;;;;8.88;1.92;;;8.80;99.90;;;;;;5041205;28;20021;-36
2022/05/30 02:54:35;;;;;;;4.28;1.45;;;8.80;99.90;;;;;;5042951;28;20025;-35
2022/05/30 02:57:01;;;;;;;2.58;1.55;;;8.90;99.90;;;;;;5036254;28;20500;-32
2022/05/30 02:59:28;;;;;;;4.05;1.15;;;8.90;99.90;;;;;;5049244;28;20481;-36
2022/05/30 03:01:54;;;;;;;6.55;1.48;;;9.00;99.90;;;;;;5040443;28;20036;-35
2022/05/30 03:04:20;;;;;;;3.42;1.23;;;9.00;99.90;;;;;;5040586;28;20029;-36
2022/05/30 03:06:46;;;;;;;6.10;1.85;;;9.00;99.90;;;;;;5033859;28;20546;-36
2022/05/30 03:09:14;;;;;;;8.38;2.50;;;9.00;99.90;;;;;;5049271;28;20052;-36
2022/05/30 03:11:39;;;;;;;3.93;1.47;;;9.10;99.90;;;;;;5046809;28;20039;-29
2022/05/30 03:14:05;;;;;;;3.58;1.65;;;9.00;99.90;;;;;;5041732;28;20136;-29
2022/05/30 03:16:32;;;;;;;7.63;1.58;;;8.90;99.90;;;;;;5039529;28;20032;-37
2022/05/30 03:18:57;;;;;;;3.78;1.35;;;8.90;99.90;;;;;;5051036;28;20501;-35
2022/05/30 03:21:23;;;;;;;6.97;1.88;;;8.80;99.90;;;;;;5052958;28;20028;-37
2022/05/30 03:24:08;;;;;;;8.82;1.70;;;8.80;99.90;;;;;;5043854;28;20032;-37
2022/05/30 03:26:33;;;;;;;6.28;1.92;;;8.80;99.90;;;;;;5052709;28;20546;-37
2022/05/30 03:28:59;;;;;;;7.72;1.92;;;8.70;99.90;;;;;;5037283;28;20029;-35
2022/05/30 03:31:25;;;;;;;6.72;1.95;;;8.60;99.90;;;;;;5039447;28;20033;-37
2022/05/30 03:33:50;;;;;;;1.40;1.30;;;8.60;99.90;;;;;;5045701;28;20355;-36
2022/05/30 03:36:26;;;;;;;3.75;1.92;;;8.50;99.90;;;;;;5036788;28;20438;-36
2022/05/30 03:38:52;;;;;;;3.42;1.63;;;8.50;99.90;;;;;;5034606;28;20423;-37
2022/05/30 03:41:18;;;;;;;8.50;1.90;;;8.50;99.90;;;;;;5035263;28;20494;-26
2022/05/30 03:43:43;;;;;;;4.15;1.67;;;8.50;99.90;;;;;;5050978;28;20025;-43
2022/05/30 03:46:09;;;;;;;5.80;1.60;;;8.50;99.90;;;;;;5050874;28;20404;-36
2022/05/30 03:48:34;;;;;;;8.02;2.30;;;8.50;99.90;;;;;;5050943;28;20091;-36
2022/05/30 03:51:04;;;;;;;3.17;1.98;;;8.40;99.90;;;;;;5038523;28;20044;-36
2022/05/30 03:53:29;;;;;;;6.53;1.65;;;8.40;99.90;;;;;;5039343;28;20458;-36
2022/05/30 03:55:55;;;;;;;2.83;1.50;;;8.40;99.90;;;;;;5042754;28;20060;-36
2022/05/30 03:58:21;;;;;;;5.47;1.83;;;8.40;99.90;;;;;;5047164;28;20108;-36
2022/05/30 04:00:47;;;;;;;4.75;1.92;;;8.40;99.90;;;;;;5032967;28;20386;-36
2022/05/30 04:03:12;;;;;;;7.57;1.92;;;8.50;99.90;;;;;;5043219;28;20021;-37
2022/05/30 04:05:39;;;;;;;4.53;1.58;;;8.50;99.90;;;;;;5038148;28;20048;-36
2022/05/30 04:08:05;;;;;;;5.10;1.88;;;8.40;99.90;;;;;;5050736;28;20041;-37
2022/05/30 04:10:32;;;;;;;4.45;2.30;;;8.40;99.90;;;;;;5040052;28;20378;-29
2022/05/30 04:13:07;;;;;;;10.95;2.58;;;8.40;99.90;;;;;;5043775;28;20490;-31
2022/05/30 04:15:33;;;;;;;9.00;2.58;;;8.40;99.90;;;;;;5032287;28;20022;-29
2022/05/30 04:17:58;;;;;;;7.82;3.03;;;8.50;99.90;;;;;;5044943;28;20082;-26
2022/05/30 04:20:24;;;;;;;5.63;2.15;;;8.50;99.90;;;;;;5040497;28;20025;-26
2022/05/30 04:22:49;;;;;;;6.47;2.10;;;8.50;99.90;;;;;;5042137;28;20102;-28
2022/05/30 04:25:15;;;;;;;8.63;1.98;;;8.50;99.90;;;;;;5049037;28;20033;-30
2022/05/30 04:27:41;;;;;;;3.20;1.88;;;8.50;99.90;;;;;;5040351;28;20592;-41
2022/05/30 04:30:08;;;;;;;6.38;1.83;;;8.60;99.90;;;;;;5040438;28;20080;-27
2022/05/30 04:32:35;;;;;;;4.18;2.05;;;8.60;99.90;;;;;;5043685;28;20044;-27
2022/05/30 04:35:00;;;;;;;7.57;1.88;;;8.60;99.90;;;;;;5033520;28;20508;-27
2022/05/30 04:37:28;;;;;;;3.60;1.70;;;8.70;99.90;;;;;;5032733;28;20022;-30
2022/05/30 04:39:53;;;;;;;3.17;1.80;;;8.70;99.90;;;;;;5033984;28;20101;-25
2022/05/30 04:42:19;;;;;;;4.43;2.05;;;8.80;99.90;;;;;;5052726;28;20359;-26
2022/05/30 04:44:44;;;;;;;2.95;2.25;;;8.80;99.90;;;;;;5042757;28;20037;-32
2022/05/30 04:47:11;;;;;;;5.75;2.33;;;8.80;99.90;;;;;;5036026;28;20025;-29
2022/05/30 04:49:38;;;;;;;7.47;2.42;;;8.90;99.90;;;;;;5042238;28;20111;-31
2022/05/30 04:52:04;;;;;;;3.55;2.15;;;8.90;99.90;;;;;;5032455;28;20059;-26
2022/05/30 04:54:29;;;;;;;5.90;2.42;;;9.00;99.90;;;;;;5038809;28;20146;-25
2022/05/30 04:56:55;;;;;;;5.15;2.05;;;9.10;99.90;;;;;;5047623;28;20445;-27
2022/05/30 04:59:20;;;;;;;6.28;3.35;;;9.20;99.90;;;;;;5050603;28;20425;-30
2022/05/30 05:01:46;;;;;;;8.73;3.17;;;9.30;99.90;;;;;;5035154;28;20041;-28
2022/05/30 05:04:12;;;;;;;14.15;2.30;;;9.30;99.90;;;;;;5038687;28;20025;-28
2022/05/30 05:06:38;;;;;;;3.55;1.63;;;9.40;99.90;;;;;;5055564;28;20070;-33
2022/05/30 05:09:15;;;;;;;8.20;1.73;;;9.50;99.90;;;;;;5049830;28;20389;-31
2022/05/30 05:11:41;;;;;;;5.57;1.98;;;9.50;99.90;;;;;;5050227;28;20037;-28
2022/05/30 05:14:07;;;;;;;6.82;2.40;;;9.60;99.90;;;;;;5046034;28;20477;-29
2022/05/30 05:16:33;;;;;;;6.35;1.80;;;9.70;99.90;;;;;;5056251;28;20029;-34
2022/05/30 05:18:59;;;;;;;8.23;2.47;;;9.80;99.90;;;;;;5047962;28;20543;-28
2022/05/30 05:24:16;;;;;;;5.75;1.67;;;10.00;99.90;;;;;;5048213;28;20468;-30
2022/05/30 05:26:49;;;;;;;2.00;1.10;;;10.10;99.90;;;;;;5035291;28;20038;-31
2022/05/30 05:29:16;;;;;;;3.05;1.20;;;10.20;99.90;;;;;;5042978;28;20283;-36
2022/05/30 05:31:42;;;;;;;2.03;1.15;;;10.30;99.90;;;;;;5038480;28;20032;-36
2022/05/30 05:34:10;;;;;;;2.95;1.15;;;10.50;99.90;;;;;;5051222;28;20480;-35
2022/05/30 05:36:42;;;;;;;3.60;1.35;;;10.50;99.90;;;;;;5050964;28;20540;-62
2022/05/30 05:39:09;;;;;;;9.48;1.63;;;10.60;99.90;;;;;;5040831;28;20057;-38
2022/05/30 05:41:35;;;;;;;2.40;1.15;;;10.70;99.90;;;;;;5039301;28;20056;-34
2022/05/30 05:44:01;;;;;;;2.63;1.00;;;10.80;99.90;;;;;;5043358;28;20060;-35
2022/05/30 05:46:29;;;;;;;9.55;1.63;;;10.90;99.90;;;;;;5033917;28;20401;-40
2022/05/30 05:49:13;;;;;;;;;;;10.90;99.90;;;;;;5043562;28;20033;-35
2022/05/30 05:51:40;;;;;;;5.05;1.70;;;11.10;99.90;;;;;;5055755;28;20291;-35
2022/05/30 05:54:06;;;;;;;5.15;1.70;;;11.20;99.90;;;;;;5054700;28;20021;-34
2022/05/30 05:56:32;;;;;;;5.82;1.13;;;11.30;99.90;;;;;;5035370;28;20029;-36
2022/05/30 05:58:59;;;;;;;3.60;1.23;;;11.40;99.90;;;;;;5036217;28;20478;-36
2022/05/30 06:01:30;;;;;;;4.55;1.08;;;11.50;99.90;;;;;;5043777;28;20570;-32
2022/05/30 06:03:58;;;;;;;2.95;0.68;;;11.70;99.90;;;;;;5035894;28;20385;-35
2022/05/30 06:06:26;;;;;;;3.50;1.45;;;11.90;99.90;;;;;;5037083;28;20500;-35
2022/05/30 06:08:53;;;;;;;4.78;1.00;;;12.10;99.90;;;;;;5038118;28;20025;-30
2022/05/30 06:11:21;;;;;;;1.40;0.93;;;12.40;99.90;;;;;;5055039;28;20520;-29
2022/05/30 06:13:47;;;;;;;4.07;1.00;;;12.60;99.90;;;;;;5054798;28;20674;-27
2022/05/30 06:16:25;;;;;;;3.33;0.95;;;12.80;99.90;;;;;;5054970;28;20032;-29
2022/05/30 06:18:52;;;;;;;3.10;1.20;;;13.30;99.90;;;;;;5054722;28;20112;-27
2022/05/30 06:21:18;;;;;;;2.15;0.73;;;14.70;99.90;;;;;;5054885;28;20564;-27
2022/05/30 06:23:45;;;;;;;2.97;1.00;;;16.50;99.90;;;;;;5054917;28;20025;-27
2022/05/30 06:26:11;;;;;;;4.63;1.00;;;17.80;99.90;;;;;;5055123;28;20017;-29
2022/05/30 06:28:38;;;;;;;3.22;1.02;;;17.90;99.90;;;;;;5054813;28;20535;-28
2022/05/30 06:31:15;;;;;;;7.75;1.70;;;17.70;99.90;;;;;;5054462;28;20029;-31
2022/05/30 06:33:41;;;;;;;4.72;0.70;;;18.90;99.90;;;;;;5034797;28;20071;-32
2022/05/30 06:36:09;;;;;;;4.45;0.95;;;20.40;98.30;;;;;;5034781;28;20026;-27
2022/05/30 06:38:35;;;;;;;;;;;21.80;97.80;;;;;;5035098;28;20022;-29
2022/05/30 06:41:16;;;;;;;3.47;0.93;;;22.50;96.40;;;;;;5034582;28;20324;-31
2022/05/30 06:43:43;;;;;;;5.03;0.73;;;22.00;96.40;;;;;;5034721;28;20022;-26
2022/05/30 06:46:09;;;;;;;5.88;0.90;;;20.10;96.30;;;;;;5034619;28;20049;-29
2022/05/30 06:48:35;;;;;;;1.10;0.60;;;18.30;97.20;;;;;;5034409;28;20051;-30
2022/05/30 06:51:06;;;;;;;2.25;0.63;;;16.80;99.50;;;;;;5034472;28;20057;-41
2022/05/30 06:53:32;;;;;;;3.05;0.57;;;16.10;99.90;;;;;;5033209;28;20029;-28
2022/05/30 06:55:58;;;;;;;2.60;0.98;;;15.90;99.90;;;;;;5042275;28;20028;-29
2022/05/30 06:58:25;;;;;;;2.45;0.60;;;15.50;99.90;;;;;;5052953;28;20043;-32
2022/05/30 07:00:51;;;;;;;6.30;0.90;;;15.00;99.90;;;;;;5054510;28;20092;-34
2022/05/30 07:03:17;;;;;;;3.60;0.73;;;14.50;99.90;;;;;;5054542;28;20539;-30
2022/05/30 07:05:44;;;;;;;1.42;0.60;;;14.00;99.90;;;;;;5054173;28;20064;-31
2022/05/30 07:08:12;;;;;;;2.05;0.40;;;13.70;99.90;;;;;;5054078;28;20029;-30
2022/05/30 07:10:39;;;;;;;3.92;0.80;;;14.10;99.90;;;;;;5054132;28;20473;-29
2022/05/30 07:13:05;;;;;;;4.00;0.68;;;14.90;99.90;;;;;;5053736;28;20049;-32
2022/05/30 07:15:35;;;;;;;3.67;0.63;;;14.60;99.90;;;;;;5053955;28;20025;-28
2022/05/30 07:18:07;;;;;;;1.23;0.68;;;14.30;99.90;;;;;;5053472;28;20489;-30
2022/05/30 07:20:33;;;;;;;4.30;0.75;;;13.90;99.90;;;;;;5053977;28;20017;-27
2022/05/30 07:22:58;;;;;;;2.80;0.50;;;14.10;99.90;;;;;;5053817;28;20074;-28
2022/05/30 07:25:24;;;;;;;4.88;0.38;;;15.80;99.90;;;;;;5053818;28;20033;-31
2022/05/30 07:27:49;;;;;;;6.63;1.20;;;17.60;99.90;;;;;;5053678;28;20021;-32
2022/05/30 07:30:16;;;;;;;3.13;0.80;;;18.30;98.50;;;;;;5053656;28;20029;-27
2022/05/30 07:32:41;;;;;;;2.15;1.10;;;18.70;98.90;;;;;;5039862;28;20057;-31
2022/05/30 07:35:07;;;;;;;2.40;0.47;;;17.70;99.20;;;;;;5033743;28;20025;-29
2022/05/30 07:37:33;;;;;;;1.20;0.43;;;16.50;99.00;;;;;;5033655;28;20039;-34
2022/05/30 07:39:58;;;;;;;2.13;0.68;;;15.50;99.50;;;;;;5033657;28;20022;-28
2022/05/30 07:42:24;;;;;;;5.20;0.55;;;14.70;99.90;;;;;;5033568;28;20060;-32
2022/05/30 07:44:50;;;;;;;1.42;0.50;;;14.20;99.90;;;;;;5033530;28;20067;-32
2022/05/30 07:47:17;;;;;;;1.60;0.68;;;14.00;99.90;;;;;;5033471;28;20108;-28
2022/05/30 07:49:43;;;;;;;6.57;1.00;;;14.00;99.90;;;;;;5033371;28;20549;-27
2022/05/30 07:52:09;;;;;;;2.22;0.45;;;14.40;99.90;;;;;;5032041;28;20379;-30
2022/05/30 07:54:35;;;;;;;1.92;0.85;;;15.30;99.90;;;;;;5033428;28;20112;-27
2022/05/30 07:57:04;;;;;;;5.45;0.98;;;15.60;99.90;;;;;;5033675;28;20018;-28
2022/05/30 07:59:30;;;;;;;2.95;0.63;;;15.50;99.90;;;;;;5049710;28;20119;-41
2022/05/30 08:01:59;;;;;;;3.42;0.63;;;15.40;99.90;;;;;;5053473;28;20048;-30
2022/05/30 08:04:24;;;;;;;2.15;0.47;;;15.30;99.90;;;;;;5053207;28;20112;-35
2022/05/30 08:06:51;;;;;;;8.52;0.52;;;15.10;99.90;;;;;;5053404;28;20440;-33
2022/05/30 08:09:17;;;;;;;4.80;0.93;;;15.00;99.90;;;;;;5053418;28;20473;-33
2022/05/30 08:11:43;;;;;;;0.50;0.50;;;14.80;99.90;;;;;;5052978;28;20021;-34
2022/05/30 08:14:10;;;;;;;0.60;0.60;;;14.40;99.90;;;;;;5052986;28;20440;-29
2022/05/30 08:16:37;;;;;;;1.70;0.75;;;14.00;99.90;;;;;;5053034;28;20102;-33
2022/05/30 08:19:08;;;;;;;2.22;0.50;;;13.80;99.90;;;;;;5053378;28;20469;-34
2022/05/30 08:21:34;;;;;;;2.05;0.70;;;13.70;99.90;;;;;;5053337;28;20480;-35
2022/05/30 08:24:00;;;;;;;3.95;0.80;;;13.70;99.90;;;;;;5053030;28;20025;-42
2022/05/30 08:26:25;;;;;;;5.18;1.10;;;13.80;99.90;;;;;;5053004;28;20078;-36
2022/05/30 08:28:51;;;;;;;5.50;0.88;;;13.50;99.90;;;;;;5055555;28;20521;-37
2022/05/30 08:31:16;;;;;;;3.60;0.98;;;13.40;99.90;;;;;;5053671;28;20389;-36
2022/05/30 08:33:42;;;;;;;3.25;0.77;;;13.20;99.90;;;;;;5037138;28;20025;-36
2022/05/30 08:36:11;;;;;;;9.35;0.70;;;12.90;99.90;;;;;;5037035;28;20018;-36
2022/05/30 08:38:37;;;;;;;8.55;0.98;;;12.80;99.90;;;;;;5036908;28;20420;-37
2022/05/30 08:43:51;;;;;;;2.40;0.60;;;12.80;99.90;;;;;;5037095;28;20123;-36
2022/05/30 08:46:24;;;;;;;1.70;0.77;;;12.70;99.90;;;;;;5036906;28;20544;-37
2022/05/30 08:49:13;;;;;;;2.70;0.40;;;12.90;99.90;;;;;;5037159;28;20511;-36
2022/05/30 08:51:58;;;;;;;1.88;0.60;;;12.90;99.90;;;;;;5036906;28;20028;-37
2022/05/30 08:54:42;;;;;;;4.00;0.70;;;13.00;99.90;;;;;;5036784;28;20537;-36
2022/05/30 08:57:18;;;;;;;1.73;0.65;;;13.10;99.90;;;;;;5036683;28;20393;-37
2022/05/30 09:00:02;;;;;;;2.28;0.50;;;13.20;99.90;;;;;;5039794;28;20484;-35
2022/05/30 09:03:00;;;;;;;0.82;0.57;;;13.40;99.90;;;;;;5056450;28;20033;-36
2022/05/30 09:05:33;;;;;;;4.30;1.05;;;13.50;99.90;;;;;;5055294;28;20501;-37
2022/05/30 09:08:04;;;;;;;0.80;0.60;;;13.70;99.90;;;;;;5056416;28;20040;-38
2022/05/30 09:10:39;;;;;;;4.15;0.40;;;13.60;99.90;;;;;;5056249;28;20033;-54
2022/05/30 09:13:21;;;;;;;2.22;0.70;;;13.50;99.90;;;;;;5056033;28;20056;-44
2022/05/30 09:15:50;;;;;;;4.03;0.55;;;13.50;99.90;;;;;;5055166;28;20029;-38
2022/05/30 09:18:21;;;;;;;5.32;0.68;;;13.60;99.90;;;;;;5056286;28;20072;-64
2022/05/30 09:20:47;;;;;;;0.95;0.63;;;13.60;99.90;;;;;;5056303;28;20066;-40
2022/05/30 09:23:14;;;;;;;0.77;0.63;;;13.60;99.90;;;;;;5056114;28;20107;-36
2022/05/30 09:25:57;;;;;;;1.30;0.35;;;13.70;99.90;;;;;;5056117;28;20392;-36
2022/05/30 09:28:28;;;;;;;2.63;0.43;;;13.80;99.90;;;;;;5056116;28;20029;-36
2022/05/30 09:30:53;;;;;;;2.70;1.00;;;13.80;99.90;;;;;;5056059;28;20538;-27
2022/05/30 09:33:48;;;;;;;0.40;0.40;;;13.60;99.90;;;;;;5036966;28;20025;-30
2022/05/30 09:36:21;;;;;;;2.13;0.55;;;13.60;99.90;;;;;;5036011;28;20021;-32
2022/05/30 09:38:59;;;;;;;0.80;0.43;;;13.60;99.90;;;;;;5036118;28;20466;-32
2022/05/30 09:41:39;;;;;;;5.90;0.40;;;13.70;99.90;;;;;;5035689;28;20527;-47
2022/05/30 09:44:06;;;;;;;1.48;0.32;;;13.60;99.90;;;;;;5035886;28;20021;-46
2022/05/30 09:46:38;;;;;;;3.25;0.28;;;13.80;99.90;;;;;;5036089;28;20500;-37
2022/05/30 09:49:16;;;;;;;1.75;0.38;;;13.90;99.90;;;;;;5035995;28;20055;-44
2022/05/30 09:51:45;;;;;;;1.55;0.68;;;13.90;99.90;;;;;;5035720;28;20048;-37
2022/05/30 09:54:33;;;;;;;4.90;0.40;;;14.00;99.90;;;;;;5035883;28;20489;-42
2022/05/30 09:57:11;;;;;;;;;;;14.00;99.90;;;;;;5035700;28;20048;-37
2022/05/30 09:59:43;;;;;;;2.38;0.10;;;14.10;99.90;;;;;;5035573;28;20296;-56
2022/05/30 10:02:32;;;;;;;3.22;0.70;;;13.90;99.90;;;;;;5041028;28;20025;-37
2022/05/30 10:05:21;;;;;;;0.70;0.30;;;13.70;99.90;;;;;;5055407;28;20021;-37
2022/05/30 10:07:53;;;;;;;1.08;0.45;;;13.80;99.90;;;;;;5055119;28;20052;-36
2022/05/30 10:10:29;;;;;;;1.08;0.40;;;14.00;99.90;;;;;;5055250;28;20071;-35
2022/05/30 10:13:04;;;;;;;0.40;0.40;;;13.90;99.90;;;;;;5054854;28;20053;-35
2022/05/30 10:15:32;;;;;;;0.85;0.50;;;13.80;99.90;;;;;;5055227;28;20531;-37
2022/05/30 10:18:13;;;;;;;1.13;0.70;;;13.90;99.90;;;;;;5055165;28;20082;-37
2022/05/30 10:20:47;;;;;;;0.88;0.28;;;14.00;99.90;;;;;;5055033;28;20021;-32
2022/05/30 10:29:57;;;;;;;0.77;0.47;;;13.90;99.90;;;;;;5054850;28;20512;-28
2022/05/30 10:32:30;;;;;;;0.73;0.38;;;13.90;99.90;;;;;;5043439;28;20103;-28
2022/05/30 10:35:14;;;;;;;4.60;0.30;;;13.90;99.90;;;;;;5035077;28;20041;-28
2022/05/30 10:38:00;;;;;;;1.08;0.40;;;13.90;99.90;;;;;;5035152;28;20474;-42
2022/05/30 10:40:52;;;;;;;7.68;0.55;;;13.90;99.90;;;;;;5034944;28;20029;-32
2022/05/30 10:43:26;;;;;;;2.97;0.60;;;14.10;99.90;;;;;;5024347;28;20106;-31
2022/05/30 10:45:58;;;;;;;0.73;0.38;;;14.20;99.90;;;;;;5034612;28;20024;-31
2022/05/30 10:48:38;;;;;;;0.75;0.38;;;14.20;99.90;;;;;;5034880;28;20474;-33
2022/05/30 10:51:09;;;;;;;1.30;0.75;;;14.30;99.90;;;;;;5034125;28;20502;-28
2022/05/30 10:53:43;;;;;;;0.80;0.30;;;14.40;99.90;;;;;;5034312;28;20064;-30
2022/05/30 10:56:34;;;;;;;0.52;0.13;;;14.40;99.90;;;;;;5033153;28;20042;-29
2022/05/30 10:59:19;;;;;;;0.20;0.20;;;14.40;99.90;;;;;;5033411;28;20124;-42
2022/05/30 11:01:49;;;;;;;0.75;0.43;;;14.30;99.90;;;;;;5034394;28;20036;-32
2022/05/30 11:04:33;;;;;;;0.80;0.30;;;14.40;99.90;;;;;;5034216;28;20485;-31
2022/05/30 11:07:22;;;;;;;2.92;0.65;;;14.50;99.90;;;;;;5034217;28;20052;-29
2022/05/30 11:10:01;;;;;;;0.77;0.35;;;14.60;99.90;;;;;;5032930;28;20034;-30
2022/05/30 11:12:31;;;;;;;4.68;0.45;;;15.00;99.90;;;;;;5033828;28;20501;-30
2022/05/30 11:15:28;;;;;;;3.03;0.77;;;15.30;99.90;;;;;;5034063;28;20152;-30
2022/05/30 11:18:09;;;;;;;0.32;0.10;;;15.40;99.90;;;;;;5034197;28;20030;-28
2022/05/30 11:20:42;;;;;;;0.75;0.60;;;15.60;99.90;;;;;;5034265;28;20022;-31
2022/05/30 11:23:08;;;;;;;0.43;0.25;;;15.70;99.90;;;;;;5034006;28;20025;-31
2022/05/30 11:26:12;;;;;;;2.20;0.60;;;16.00;99.90;;;;;;5034125;28;20534;-30
2022/05/30 11:29:07;;;;;;;1.70;0.63;;;16.40;99.90;;;;;;5033684;28;20112;-29
2022/05/30 11:31:52;;;;;;;1.38;0.40;;;16.60;99.70;;;;;;5033695;28;20030;-32
2022/05/30 11:34:52;;;;;;;5.78;1.35;;;16.80;99.40;;;;;;5033785;28;20025;-32
2022/05/30 11:37:26;;;;;;;1.13;0.50;;;16.60;99.10;;;;;;5033732;28;20024;-30
2022/05/30 11:39:57;;;;;;;3.55;0.40;;;16.60;99.70;;;;;;5033661;28;20496;-28
2022/05/30 11:42:47;;;;;;;0.50;0.50;;;16.30;99.80;;;;;;5033583;28;20025;-30
2022/05/30 11:45:31;;;;;;;1.63;0.60;;;15.90;99.90;;;;;;5033030;28;20033;-30
2022/05/30 11:48:09;;;;;;;3.45;0.60;;;15.60;99.90;;;;;;5032197;28;20389;-32
2022/05/30 11:50:36;;;;;;;1.30;0.47;;;15.30;99.90;;;;;;5033434;28;20116;-33
2022/05/30 11:53:12;;;;;;;5.20;0.55;;;15.20;99.90;;;;;;5033628;28;20029;-31
2022/05/30 11:56:05;;;;;;;2.83;0.82;;;15.20;99.90;;;;;;5033413;28;20026;-29
2022/05/30 11:58:34;;;;;;;0.82;0.60;;;15.10;99.90;;;;;;5033457;28;20022;-29
2022/05/30 12:01:02;;;;;;;1.30;0.55;;;15.10;99.90;;;;;;5033329;28;20544;-30
2022/05/30 12:04:00;;;;;;;5.97;0.70;;;15.00;99.90;;;;;;5032889;28;20021;-32
2022/05/30 12:06:52;;;;;;;3.42;0.55;;;14.90;99.90;;;;;;5033279;28;20117;-31
2022/05/30 12:09:18;;;;;;;0.60;0.50;;;15.00;99.90;;;;;;5033147;28;20029;-34
2022/05/30 12:12:13;;;;;;;5.47;1.00;;;15.00;99.90;;;;;;5033042;28;20436;-32
2022/05/30 12:15:05;;;;;;;1.95;0.68;;;15.00;99.90;;;;;;5033061;28;20049;-37
2022/05/30 12:24:23;;;;;;;1.90;0.57;;;15.20;99.90;;;;;;5033025;28;20032;-31
2022/05/30 12:26:55;;;;;;;2.00;0.75;;;15.20;99.90;;;;;;5032583;28;20045;-31
2022/05/30 12:29:38;;;;;;;12.60;5.32;;;15.10;99.90;;;;;;5032959;28;20037;-34
2022/05/30 12:32:22;;;;;;;1.35;0.93;;;15.30;99.90;;;;;;5032922;28;20065;-38
2022/05/30 12:35:32;;;;;;;1.85;0.80;;;15.50;99.90;;;;;;5032988;28;20032;-31
2022/05/30 12:37:52;;;;;;;1.05;0.50;;;15.80;99.90;;;;;;5032571;28;20045;-34
2022/05/30 12:40:26;;;;;;;2.83;0.60;;;16.20;99.90;;;;;;5033001;28;20505;-27
2022/05/30 12:43:05;;;;;;;2.63;0.70;;;16.20;99.90;;;;;;5033033;28;20636;-35
2022/05/30 12:45:36;;;;;;;2.30;0.88;;;16.10;99.90;;;;;;5032904;28;20025;-36
2022/05/30 12:48:19;;;;;;;2.75;1.33;;;16.10;99.90;;;;;;5032837;28;20041;-37
2022/05/30 12:50:59;;;;;;;1.15;0.47;;;16.20;99.90;;;;;;5033031;28;20030;-37
2022/05/30 12:53:54;;;;;;;0.85;0.55;;;16.20;99.90;;;;;;5032928;28;20025;-36
2022/05/30 12:56:38;;;;;;;7.63;1.05;;;16.30;99.90;;;;;;5032715;28;20493;-35
2022/05/30 12:59:03;;;;;;;4.28;0.85;;;16.30;99.90;;;;;;5032759;28;20045;-36
2022/05/30 13:01:44;;;;;;;1.48;0.70;;;16.20;99.90;;;;;;5032685;28;20390;-36
2022/05/30 13:04:21;;;;;;;0.90;0.57;;;16.10;99.90;;;;;;5032794;28;20388;-35
2022/05/30 13:06:56;;;;;;;0.55;0.50;;;15.80;99.90;;;;;;5032994;28;20499;-36
2022/05/30 13:09:33;;;;;;;2.35;1.42;;;15.70;99.90;;;;;;5032587;28;20029;-35
2022/05/30 13:12:11;;;;;;;2.55;0.98;;;15.90;99.90;;;;;;5032271;28;20026;-36
2022/05/30 13:14:36;;;;;;;5.97;0.47;;;16.30;99.90;;;;;;5033169;28;20048;-36
2022/05/30 13:17:23;;;;;;;1.48;0.70;;;16.50;99.90;;;;;;5036299;28;20394;-36
2022/05/30 13:19:58;;;;;;;1.52;0.70;;;16.60;99.90;;;;;;5036325;28;20026;-37
2022/05/30 13:22:36;;;;;;;1.45;0.68;;;16.70;99.90;;;;;;5036231;28;20038;-36
2022/05/30 13:25:05;;;;;;;1.75;0.98;;;16.60;99.90;;;;;;5036192;28;20112;-36
2022/05/30 13:27:31;;;;;;;1.92;0.60;;;16.30;99.90;;;;;;5036100;28;20481;-37
2022/05/30 13:30:07;;;;;;;2.28;0.85;;;16.30;99.90;;;;;;5036043;28;20030;-36
2022/05/30 13:32:33;;;;;;;2.15;0.63;;;16.40;99.90;;;;;;5035940;28;20029;-36
2022/05/30 13:35:03;;;;;;;4.75;0.70;;;16.40;99.90;;;;;;5036361;28;20017;-37
2022/05/30 13:37:32;;;;;;;1.27;0.80;;;16.40;99.70;;;;;;5035988;28;20029;-36